Pine Ridge, Arkansas
Current Conditions -  °F | °C
As of 10:53 AM on Thursday 18 Dec 2014 (Local Time) from KMWT Reporting Station
Overcast Overcast  
Wind Chill: 41°   Ceiling: 400
Heat Index: 41°   Visibility: 7mi
Dew Point: 39°   Wind: 0mph
Humidity: 93%   Direction: NA
Pressure: 30.19"   Gusts: NA
Location:  34.6186°N, 93.7769°W
Report Text: KMWT 181653Z AUTO 00000KT 7SM OVC004 05/04 A3019 RMK AO2 SLP232 T00500039
Loading
Personal Weather Stations






























Interactive Weather Map New forecast layout! Learn more

10-Day Weather Forecast

Advertisements
Track Severe Weather on mobile